createdAt,value
2022-12-11T00:02:23.680Z,83.03
2022-12-11T00:04:50.623Z,83.30
2022-12-11T00:07:17.781Z,83.27
2022-12-11T00:09:44.797Z,83.49
2022-12-11T00:12:11.997Z,83.08
2022-12-11T00:14:39.060Z,82.78
2022-12-11T00:17:06.346Z,82.81
2022-12-11T00:19:33.488Z,83.04
2022-12-11T00:22:00.559Z,82.85
2022-12-11T00:24:29.934Z,82.83
2022-12-11T00:26:57.019Z,82.92
2022-12-11T00:29:23.981Z,82.83
2022-12-11T00:31:52.233Z,82.28
2022-12-11T00:34:19.242Z,82.16
2022-12-11T00:36:46.255Z,81.98
2022-12-11T00:39:13.306Z,81.64
2022-12-11T00:41:40.347Z,81.53
2022-12-11T00:44:07.282Z,81.13
2022-12-11T00:46:34.353Z,81.50
2022-12-11T00:49:01.462Z,81.56
2022-12-11T00:51:28.492Z,81.82
2022-12-11T00:53:55.930Z,81.65
2022-12-11T00:56:24.631Z,81.69
2022-12-11T00:58:51.820Z,81.63
2022-12-11T01:01:22.148Z,81.69
2022-12-11T01:03:49.919Z,81.95
2022-12-11T01:06:24.246Z,82.06
2022-12-11T01:09:14.538Z,81.80
2022-12-11T01:11:43.074Z,82.18
2022-12-11T01:14:11.929Z,82.04
2022-12-11T01:16:39.628Z,82.16
2022-12-11T01:19:06.921Z,82.27
2022-12-11T01:21:34.014Z,82.47
2022-12-11T01:24:01.160Z,82.35
2022-12-11T01:26:28.296Z,82.17
2022-12-11T01:28:55.477Z,81.76
2022-12-11T01:31:22.577Z,81.59
2022-12-11T01:33:49.741Z,81.79
2022-12-11T01:36:21.919Z,82.04
2022-12-11T01:38:49.944Z,82.66
2022-12-11T01:41:18.827Z,83.06
2022-12-11T01:44:02.198Z,83.26
2022-12-11T01:46:30.608Z,83.29
2022-12-11T01:48:59.157Z,83.39
2022-12-11T01:51:27.246Z,83.52
2022-12-11T01:54:01.015Z,83.71
2022-12-11T01:56:32.563Z,83.62
2022-12-11T01:59:07.199Z,84.01
2022-12-11T02:01:45.378Z,84.27
2022-12-11T02:04:16.107Z,84.37
2022-12-11T02:06:47.190Z,84.83
2022-12-11T02:09:17.409Z,84.61
2022-12-11T02:12:06.941Z,84.20
2022-12-11T02:15:03.458Z,84.15
2022-12-11T02:17:51.340Z,84.27
2022-12-11T02:20:37.116Z,84.09
2022-12-11T02:23:33.006Z,83.68
2022-12-11T02:26:29.636Z,83.70
2022-12-11T02:29:03.289Z,83.51
2022-12-11T02:31:38.735Z,83.81
2022-12-11T02:34:12.328Z,83.74
2022-12-11T02:36:44.141Z,83.26
2022-12-11T02:39:15.252Z,82.75
2022-12-11T02:41:52.326Z,82.61
2022-12-11T02:44:33.602Z,82.04
2022-12-11T02:47:03.091Z,80.74
2022-12-11T02:49:32.445Z,80.22
2022-12-11T02:52:03.613Z,80.01
2022-12-11T02:54:34.096Z,80.31
2022-12-11T02:57:08.845Z,79.98
2022-12-11T02:59:41.715Z,79.58
2022-12-11T03:02:09.563Z,79.33
2022-12-11T03:04:37.191Z,79.18
2022-12-11T03:07:12.478Z,78.87
2022-12-11T03:09:40.937Z,78.63
2022-12-11T03:12:17.333Z,78.59
2022-12-11T03:14:44.854Z,77.92
2022-12-11T03:17:17.538Z,77.62
2022-12-11T03:20:15.169Z,77.87
2022-12-11T03:22:59.772Z,77.00
2022-12-11T03:25:36.180Z,77.22
2022-12-11T03:28:14.194Z,76.96
2022-12-11T03:30:44.176Z,76.42
2022-12-11T03:33:18.146Z,76.79
2022-12-11T03:35:51.728Z,76.73
2022-12-11T03:38:24.077Z,76.52
2022-12-11T03:40:55.856Z,76.38
2022-12-11T03:43:23.530Z,76.20
2022-12-11T03:45:53.884Z,75.97
2022-12-11T03:48:22.984Z,75.72
2022-12-11T03:50:51.167Z,75.84
2022-12-11T03:53:19.326Z,75.60
2022-12-11T03:55:48.262Z,75.65
2022-12-11T03:58:15.501Z,75.31
2022-12-11T04:00:42.833Z,75.29
2022-12-11T04:03:14.076Z,75.38
2022-12-11T04:05:43.948Z,75.60
2022-12-11T04:08:11.597Z,75.52
2022-12-11T04:10:39.821Z,75.44
2022-12-11T04:13:07.322Z,75.66
2022-12-11T04:15:34.866Z,75.63
2022-12-11T04:18:20.511Z,75.57
2022-12-11T04:21:06.281Z,75.84
2022-12-11T04:23:54.284Z,76.10
2022-12-11T04:26:21.596Z,75.73
2022-12-11T04:28:49.712Z,75.67
2022-12-11T04:31:20.231Z,75.47
2022-12-11T04:33:48.013Z,75.46
2022-12-11T04:36:15.195Z,75.42
2022-12-11T04:38:42.196Z,75.35
2022-12-11T04:41:16.013Z,75.38
2022-12-11T04:43:47.091Z,75.26
2022-12-11T04:46:18.208Z,75.54
2022-12-11T04:48:53.794Z,75.36
2022-12-11T04:51:24.211Z,75.32
2022-12-11T04:53:51.365Z,75.68
2022-12-11T04:56:19.039Z,75.87
2022-12-11T04:58:47.432Z,75.55
2022-12-11T05:01:18.788Z,75.58
2022-12-11T05:03:46.607Z,75.26
2022-12-11T05:06:14.700Z,75.18
2022-12-11T05:08:42.808Z,75.30
2022-12-11T05:11:12.386Z,75.39
2022-12-11T05:13:39.860Z,74.64
2022-12-11T05:16:11.353Z,74.66
2022-12-11T05:18:38.608Z,74.73
2022-12-11T05:21:08.530Z,74.62
2022-12-11T05:23:36.286Z,74.71
2022-12-11T05:26:11.073Z,74.79
2022-12-11T05:28:39.781Z,74.70
2022-12-11T05:31:12.196Z,74.70
2022-12-11T05:33:39.535Z,74.35
2022-12-11T05:36:07.746Z,74.08
2022-12-11T05:38:35.082Z,73.88
2022-12-11T05:41:07.914Z,74.21
2022-12-11T05:43:37.034Z,74.16
2022-12-11T05:46:14.553Z,74.05
2022-12-11T05:48:42.864Z,73.60
2022-12-11T05:51:10.766Z,73.15
2022-12-11T05:53:39.358Z,72.69
2022-12-11T05:56:10.946Z,72.41
2022-12-11T05:58:38.399Z,71.98
2022-12-11T06:01:23.208Z,71.72
2022-12-11T06:04:18.119Z,70.57
2022-12-11T06:06:56.934Z,69.57
2022-12-11T06:09:24.249Z,69.31
2022-12-11T06:11:51.303Z,68.42
2022-12-11T06:14:18.402Z,68.01
2022-12-11T06:16:45.396Z,67.25
2022-12-11T06:19:18.483Z,66.38
2022-12-11T06:21:48.913Z,66.11
2022-12-11T06:24:16.829Z,65.32
2022-12-11T06:26:43.871Z,64.53
2022-12-11T06:29:13.060Z,63.70
2022-12-11T06:31:40.601Z,63.29
2022-12-11T06:34:07.773Z,63.35
2022-12-11T06:36:34.840Z,62.88
2022-12-11T06:39:01.878Z,62.67
2022-12-11T06:41:28.942Z,63.17
2022-12-11T06:43:56.140Z,63.80
2022-12-11T06:46:23.349Z,64.03
2022-12-11T06:48:51.194Z,64.49
2022-12-11T06:51:23.326Z,65.11
2022-12-11T06:53:55.729Z,65.72
2022-12-11T06:56:24.647Z,66.25
2022-12-11T06:58:52.178Z,66.31
2022-12-11T07:01:26.225Z,66.69
2022-12-11T07:03:57.529Z,66.65
2022-12-11T07:06:26.395Z,66.84
2022-12-11T07:08:53.368Z,66.42
2022-12-11T07:11:21.455Z,66.14
2022-12-11T07:13:49.096Z,65.84
2022-12-11T07:16:17.785Z,65.57
2022-12-11T07:18:49.112Z,65.60
2022-12-11T07:21:16.371Z,65.77
2022-12-11T07:23:43.696Z,65.59
2022-12-11T07:26:16.744Z,65.33
2022-12-11T07:28:44.149Z,65.02
2022-12-11T07:31:17.190Z,64.69
2022-12-11T07:33:44.879Z,64.27
2022-12-11T07:36:13.377Z,64.02
2022-12-11T07:38:41.028Z,63.78
2022-12-11T07:41:11.292Z,62.91
2022-12-11T07:43:38.652Z,62.66
2022-12-11T07:46:11.408Z,62.76
2022-12-11T07:48:40.811Z,62.22
2022-12-11T07:51:19.989Z,61.73
2022-12-11T07:53:50.425Z,61.22
2022-12-11T07:56:19.390Z,61.10
2022-12-11T07:58:47.362Z,60.95
2022-12-11T08:01:17.489Z,60.40
2022-12-11T08:03:45.174Z,60.31
2022-12-11T08:06:12.865Z,59.64
2022-12-11T08:08:41.658Z,59.08
2022-12-11T08:11:12.049Z,59.35
2022-12-11T08:13:40.322Z,59.20
2022-12-11T08:16:09.559Z,59.01
2022-12-11T08:18:38.291Z,59.14
2022-12-11T08:21:07.107Z,58.88
2022-12-11T08:23:34.704Z,58.57
2022-12-11T08:26:11.204Z,58.31
2022-12-11T08:28:38.336Z,58.25
2022-12-11T08:31:08.170Z,58.42
2022-12-11T08:33:37.621Z,58.42
2022-12-11T08:36:09.846Z,58.50
2022-12-11T08:38:37.693Z,59.77
2022-12-11T08:41:12.896Z,60.54
2022-12-11T08:43:40.759Z,61.18
2022-12-11T08:46:08.721Z,62.07
2022-12-11T08:48:37.867Z,62.58
2022-12-11T08:51:08.628Z,62.19
2022-12-11T08:53:35.678Z,62.21
2022-12-11T08:56:08.246Z,61.75
2022-12-11T08:58:35.948Z,62.09
2022-12-11T09:01:12.375Z,62.03
2022-12-11T09:03:40.666Z,60.61
2022-12-11T09:06:09.977Z,60.08
2022-12-11T09:08:37.285Z,59.41
2022-12-11T09:11:07.339Z,59.80
2022-12-11T09:13:34.630Z,59.41
2022-12-11T09:16:05.178Z,59.71
2022-12-11T09:18:32.410Z,59.81
2022-12-11T09:21:04.129Z,59.84
2022-12-11T09:23:31.627Z,59.90
2022-12-11T09:25:58.796Z,59.31
2022-12-11T09:28:26.496Z,59.75
2022-12-11T09:30:53.541Z,59.06
2022-12-11T09:33:20.791Z,58.72
2022-12-11T09:35:58.334Z,58.34
2022-12-11T09:38:25.506Z,57.75
2022-12-11T09:40:52.731Z,58.58
2022-12-11T09:43:50.029Z,58.46
2022-12-11T09:46:18.240Z,57.88
2022-12-11T09:48:47.785Z,57.32
2022-12-11T09:51:26.934Z,57.65
2022-12-11T09:53:59.636Z,57.23
2022-12-11T09:56:30.519Z,56.15
2022-12-11T09:59:03.373Z,55.04
2022-12-11T10:01:42.517Z,55.00
2022-12-11T10:04:34.664Z,54.25
2022-12-11T10:07:24.802Z,53.43
2022-12-11T10:10:03.270Z,52.46
2022-12-11T10:13:26.004Z,52.22
2022-12-11T10:16:04.207Z,51.17
2022-12-11T10:18:32.746Z,50.81
2022-12-11T10:21:02.849Z,50.71
2022-12-11T10:23:36.463Z,49.97
2022-12-11T10:26:12.936Z,49.54
2022-12-11T10:28:40.088Z,48.83
2022-12-11T10:31:18.352Z,49.05
2022-12-11T10:33:57.140Z,48.33
2022-12-11T10:36:31.581Z,48.06
2022-12-11T10:38:59.437Z,48.17
2022-12-11T10:41:40.923Z,47.51
2022-12-11T10:44:21.628Z,46.67
2022-12-11T10:47:08.567Z,46.37
2022-12-11T10:49:37.376Z,44.41
2022-12-11T10:52:24.991Z,43.70
2022-12-11T10:55:10.467Z,42.32
2022-12-11T10:57:39.439Z,43.22
2022-12-11T11:00:08.954Z,42.43
2022-12-11T11:02:38.880Z,42.76
2022-12-11T11:05:36.439Z,42.21
2022-12-11T11:08:15.432Z,42.03
2022-12-11T11:11:20.167Z,42.74
2022-12-11T11:13:47.241Z,42.90
2022-12-11T11:16:17.886Z,42.37
2022-12-11T11:18:53.339Z,42.35
2022-12-11T11:21:24.346Z,42.30
2022-12-11T11:23:53.911Z,41.18
2022-12-11T11:26:38.256Z,38.53
2022-12-11T11:29:27.952Z,39.17
2022-12-11T11:31:55.281Z,38.28
2022-12-11T11:34:22.445Z,38.38
2022-12-11T11:36:58.040Z,38.45
2022-12-11T11:39:32.828Z,37.86
2022-12-11T11:42:55.674Z,39.24
2022-12-11T11:45:29.817Z,38.80
2022-12-11T11:48:24.906Z,38.64
2022-12-11T11:50:54.051Z,38.29
2022-12-11T11:53:37.404Z,39.14
2022-12-11T11:56:22.808Z,39.41
2022-12-11T11:59:06.849Z,39.18
2022-12-11T12:01:33.986Z,39.45
2022-12-11T12:04:02.789Z,38.26
2022-12-11T12:07:07.479Z,38.61
2022-12-11T12:09:51.935Z,37.94
2022-12-11T12:12:28.614Z,38.31
2022-12-11T12:15:22.840Z,37.68
2022-12-11T12:17:56.717Z,38.25
2022-12-11T12:20:53.952Z,38.16
2022-12-11T12:23:41.367Z,39.06
2022-12-11T12:26:47.280Z,40.31
2022-12-11T12:29:23.609Z,40.45
2022-12-11T12:32:02.452Z,41.44
2022-12-11T12:34:45.073Z,42.68
2022-12-11T12:37:24.278Z,42.89
2022-12-11T12:40:13.573Z,42.81
2022-12-11T12:42:52.801Z,43.33
2022-12-11T12:45:35.171Z,43.40
2022-12-11T12:48:03.436Z,43.92
2022-12-11T12:50:38.834Z,43.81
2022-12-11T12:53:07.813Z,43.95
2022-12-11T12:55:36.002Z,43.92
2022-12-11T12:58:05.873Z,44.51
2022-12-11T13:00:44.194Z,44.27
2022-12-11T13:03:20.411Z,44.01
2022-12-11T13:06:01.745Z,43.79
2022-12-11T13:08:35.087Z,44.10
2022-12-11T13:11:11.602Z,43.77
2022-12-11T13:13:42.647Z,44.29
2022-12-11T13:16:15.792Z,44.68
2022-12-11T13:18:48.368Z,44.37
2022-12-11T13:21:36.413Z,43.03
2022-12-11T13:24:14.533Z,42.45
2022-12-11T13:26:43.292Z,41.67
2022-12-11T13:29:34.212Z,42.01
2022-12-11T13:32:23.628Z,41.29
2022-12-11T13:34:57.885Z,39.92
2022-12-11T13:37:33.974Z,40.16
2022-12-11T13:40:09.291Z,39.40
2022-12-11T13:42:49.448Z,38.63
2022-12-11T13:45:24.184Z,38.73
2022-12-11T13:47:51.539Z,38.74
2022-12-11T13:50:24.503Z,38.74
2022-12-11T13:52:56.492Z,38.97
2022-12-11T13:55:30.354Z,38.77
2022-12-11T13:57:58.389Z,38.74
2022-12-11T14:00:28.086Z,38.88
2022-12-11T14:02:58.953Z,38.96
2022-12-11T14:05:26.261Z,39.32
2022-12-11T14:07:59.039Z,39.29
2022-12-11T14:10:29.855Z,39.48
2022-12-11T14:13:02.627Z,40.10
2022-12-11T14:15:31.867Z,40.22
2022-12-11T14:18:00.996Z,40.22
2022-12-11T14:20:33.932Z,40.55
2022-12-11T14:23:08.057Z,40.29
2022-12-11T14:25:35.076Z,40.47
2022-12-11T14:28:02.282Z,40.53
2022-12-11T14:30:33.340Z,40.77
2022-12-11T14:33:05.449Z,40.92
2022-12-11T14:35:40.497Z,41.08
2022-12-11T14:38:33.776Z,41.75
2022-12-11T14:41:07.802Z,41.76
2022-12-11T14:43:42.731Z,42.43
2022-12-11T14:46:18.460Z,43.37
2022-12-11T14:49:15.807Z,43.50
2022-12-11T14:51:43.570Z,43.38
2022-12-11T14:54:24.119Z,43.46
2022-12-11T14:56:51.402Z,43.80
2022-12-11T14:59:28.348Z,43.77
2022-12-11T15:01:59.412Z,44.53
2022-12-11T15:04:32.914Z,44.82
2022-12-11T15:07:00.752Z,45.00
2022-12-11T15:09:33.919Z,45.37
2022-12-11T15:12:10.881Z,45.70
2022-12-11T15:14:52.298Z,46.12
2022-12-11T15:17:20.923Z,47.29
2022-12-11T15:20:02.012Z,47.77
2022-12-11T15:22:32.177Z,48.80
2022-12-11T15:25:00.464Z,49.10
2022-12-11T15:27:39.083Z,49.63
2022-12-11T15:30:18.314Z,50.13
2022-12-11T15:32:45.958Z,50.45
2022-12-11T15:35:24.708Z,51.19
2022-12-11T15:37:56.437Z,51.72
2022-12-11T15:40:24.474Z,52.24
2022-12-11T15:42:52.458Z,52.81
2022-12-11T15:45:22.104Z,52.74
2022-12-11T15:47:50.045Z,52.72
2022-12-11T15:50:22.101Z,53.17
2022-12-11T15:52:50.708Z,53.02
2022-12-11T15:55:18.611Z,53.25
2022-12-11T15:57:49.431Z,53.37
2022-12-11T16:00:21.404Z,53.73
2022-12-11T16:02:48.698Z,53.87
2022-12-11T16:05:16.057Z,54.14
2022-12-11T16:07:43.268Z,54.07
2022-12-11T16:10:17.872Z,54.76
2022-12-11T16:12:45.681Z,55.92
2022-12-11T16:15:20.155Z,57.71
2022-12-11T16:17:50.460Z,58.69
2022-12-11T16:20:17.713Z,59.29
2022-12-11T16:22:44.881Z,59.90
2022-12-11T16:25:12.305Z,61.94
2022-12-11T16:27:39.501Z,62.84
2022-12-11T16:30:10.907Z,63.28
2022-12-11T16:32:38.149Z,63.69
2022-12-11T16:35:05.673Z,63.98
2022-12-11T16:37:32.671Z,64.47
2022-12-11T16:40:00.380Z,64.33
2022-12-11T16:42:27.536Z,64.18
2022-12-11T16:44:54.671Z,64.18
2022-12-11T16:47:21.763Z,64.45
2022-12-11T16:49:48.898Z,64.33
2022-12-11T16:52:21.796Z,64.26
2022-12-11T16:54:49.219Z,64.47
2022-12-11T16:57:16.234Z,64.52
2022-12-11T16:59:43.576Z,64.76
2022-12-11T17:02:11.293Z,65.02
2022-12-11T17:04:38.570Z,65.46
2022-12-11T17:07:05.913Z,65.73
2022-12-11T17:09:33.104Z,65.90
2022-12-11T17:12:00.096Z,66.17
2022-12-11T17:14:27.329Z,66.37
2022-12-11T17:16:55.277Z,66.82
2022-12-11T17:19:22.474Z,66.92
2022-12-11T17:21:51.754Z,67.23
2022-12-11T17:24:18.850Z,67.80
2022-12-11T17:26:46.652Z,68.12
2022-12-11T17:29:13.683Z,68.63
2022-12-11T17:31:40.640Z,69.07
2022-12-11T17:34:07.535Z,69.15
2022-12-11T17:36:34.551Z,69.50
2022-12-11T17:39:01.611Z,69.73
2022-12-11T17:41:28.585Z,69.79
2022-12-11T17:43:55.973Z,69.77
2022-12-11T17:46:22.898Z,69.83
2022-12-11T17:48:50.032Z,69.73
2022-12-11T17:51:26.609Z,70.06
2022-12-11T17:53:55.792Z,70.15
2022-12-11T17:56:23.182Z,70.59
2022-12-11T17:58:50.739Z,70.80
2022-12-11T18:01:17.773Z,71.57
2022-12-11T18:03:45.071Z,71.33
2022-12-11T18:06:13.559Z,71.70
2022-12-11T18:08:41.277Z,72.16
2022-12-11T18:11:10.128Z,72.73
2022-12-11T18:13:37.073Z,72.80
2022-12-11T18:16:09.501Z,72.96
2022-12-11T18:18:37.251Z,73.06
2022-12-11T18:21:04.405Z,73.18
2022-12-11T18:23:31.437Z,73.52
2022-12-11T18:25:58.368Z,73.71
2022-12-11T18:28:25.368Z,73.73
2022-12-11T18:30:53.498Z,73.92
2022-12-11T18:33:21.826Z,74.16
2022-12-11T18:35:49.326Z,74.44
2022-12-11T18:38:16.556Z,74.47
2022-12-11T18:40:43.566Z,74.90
2022-12-11T18:43:10.447Z,75.24
2022-12-11T18:45:41.621Z,75.26
2022-12-11T18:48:09.835Z,75.48
2022-12-11T18:50:37.187Z,75.57
2022-12-11T18:53:04.220Z,75.78
2022-12-11T18:55:31.080Z,76.01
2022-12-11T18:57:58.466Z,76.05
2022-12-11T19:00:25.884Z,76.26
2022-12-11T19:02:53.010Z,76.34
2022-12-11T19:05:19.941Z,76.08
2022-12-11T19:10:14.275Z,76.06
2022-12-11T19:12:42.954Z,76.21
2022-12-11T19:15:10.745Z,76.07
2022-12-11T19:17:38.664Z,75.94
2022-12-11T19:20:32.329Z,75.88
2022-12-11T19:22:53.734Z,75.98
2022-12-11T19:25:20.709Z,75.87
2022-12-11T19:27:50.226Z,75.65
2022-12-11T19:30:17.050Z,75.51
2022-12-11T19:32:45.972Z,75.63
2022-12-11T19:35:14.959Z,75.87
2022-12-11T19:37:45.376Z,75.83
2022-12-11T19:40:15.216Z,75.65
2022-12-11T19:42:42.649Z,75.74
2022-12-11T19:45:10.880Z,76.02
2022-12-11T19:47:37.967Z,76.37
2022-12-11T19:50:05.259Z,76.52
2022-12-11T19:52:32.174Z,76.86
2022-12-11T19:55:05.871Z,77.02
2022-12-11T19:57:34.724Z,77.04
2022-12-11T20:00:01.936Z,77.32
2022-12-11T20:02:28.886Z,77.27
2022-12-11T20:04:55.853Z,77.43
2022-12-11T20:07:27.409Z,77.29
2022-12-11T20:10:00.432Z,77.29
2022-12-11T20:12:27.568Z,77.17
2022-12-11T20:14:54.535Z,77.14
2022-12-11T20:17:21.387Z,77.19
2022-12-11T20:19:48.348Z,77.09
2022-12-11T20:22:15.221Z,77.18
2022-12-11T20:24:42.207Z,77.02
2022-12-11T20:27:09.686Z,76.94
2022-12-11T20:29:37.959Z,77.10
2022-12-11T20:32:05.230Z,77.36
2022-12-11T20:34:33.840Z,77.09
2022-12-11T20:37:00.766Z,76.99
2022-12-11T20:39:27.618Z,77.09
2022-12-11T20:41:54.541Z,76.96
2022-12-11T20:44:21.477Z,76.81
2022-12-11T20:46:48.559Z,76.86
2022-12-11T20:49:15.377Z,76.94
2022-12-11T20:51:42.362Z,77.00
2022-12-11T20:54:09.213Z,76.83
2022-12-11T20:56:36.431Z,77.01
2022-12-11T20:59:03.506Z,76.31
2022-12-11T21:01:31.798Z,76.07
2022-12-11T21:03:59.717Z,75.64
2022-12-11T21:06:31.424Z,75.86
2022-12-11T21:09:00.135Z,75.69
2022-12-11T21:11:27.118Z,75.28
2022-12-11T21:13:54.497Z,75.25
2022-12-11T21:16:21.486Z,75.09
2022-12-11T21:18:49.055Z,75.00
2022-12-11T21:21:16.479Z,74.69
2022-12-11T21:23:43.759Z,74.77
2022-12-11T21:26:10.755Z,74.48
2022-12-11T21:28:37.802Z,74.48
2022-12-11T21:31:06.640Z,74.40
2022-12-11T21:33:34.152Z,74.25
2022-12-11T21:36:01.493Z,74.31
2022-12-11T21:38:29.035Z,73.95
2022-12-11T21:40:56.506Z,73.89
2022-12-11T21:43:24.126Z,73.39
2022-12-11T21:46:00.916Z,73.23
2022-12-11T21:48:30.958Z,72.61
2022-12-11T21:51:09.948Z,72.11
2022-12-11T21:53:37.184Z,71.97
2022-12-11T21:56:05.600Z,72.02
2022-12-11T21:58:33.228Z,71.31
2022-12-11T22:01:00.235Z,71.12
2022-12-11T22:03:27.122Z,71.24
2022-12-11T22:05:54.176Z,70.67
2022-12-11T22:08:21.237Z,70.37
2022-12-11T22:10:48.730Z,70.28
2022-12-11T22:13:15.619Z,70.16
2022-12-11T22:15:42.739Z,70.34
2022-12-11T22:18:09.699Z,70.21
2022-12-11T22:20:36.564Z,70.13
2022-12-11T22:23:03.586Z,70.24
2022-12-11T22:25:31.051Z,69.86
2022-12-11T22:27:58.016Z,69.63
2022-12-11T22:30:25.070Z,69.03
2022-12-11T22:32:51.932Z,68.74
2022-12-11T22:35:21.846Z,67.89
2022-12-11T22:37:52.112Z,66.82
2022-12-11T22:40:19.432Z,66.78
2022-12-11T22:42:46.235Z,66.81
2022-12-11T22:45:13.530Z,67.01
2022-12-11T22:47:40.878Z,66.99
2022-12-11T22:50:07.910Z,67.17
2022-12-11T22:52:34.993Z,68.23
2022-12-11T22:55:01.932Z,69.15
2022-12-11T22:57:28.923Z,69.95
2022-12-11T22:59:57.162Z,71.27
2022-12-11T23:02:24.454Z,71.44
2022-12-11T23:04:51.469Z,71.47
2022-12-11T23:07:18.282Z,70.83
2022-12-11T23:09:45.132Z,70.51
2022-12-11T23:12:12.132Z,70.15
2022-12-11T23:14:38.918Z,69.86
2022-12-11T23:17:05.957Z,69.84
2022-12-11T23:19:32.900Z,70.12
2022-12-11T23:21:59.827Z,70.39
2022-12-11T23:24:26.620Z,70.91
2022-12-11T23:26:53.488Z,71.31
2022-12-11T23:29:20.324Z,71.73
2022-12-11T23:31:47.196Z,71.98
2022-12-11T23:34:14.187Z,72.42
2022-12-11T23:36:40.971Z,72.81
2022-12-11T23:39:08.031Z,73.27
2022-12-11T23:41:35.284Z,73.67
2022-12-11T23:44:02.309Z,73.84
2022-12-11T23:46:29.415Z,74.01
2022-12-11T23:48:56.714Z,74.03
2022-12-11T23:51:24.672Z,74.19
2022-12-11T23:53:51.899Z,74.34
2022-12-11T23:56:20.603Z,74.30
2022-12-11T23:58:47.816Z,74.33
